FRA weather

Frankfurt am Main Airport
Frankfurt am Main, Hesse, Germany

Public forecast

Using degrees Celsius for public forecast. Weather courtesy of forecast.io.

METAR (pilot weather report)

Retrieved 2018/09/20 06:50 UTC (2 hours ago):

EDDF 200650Z 23003KT CAVOK 17/14 Q1020 NOSIG

TAF (pilot weather forecast)

Retrieved 2018/09/20 06:27 UTC (2 hours ago):

TAF TAF EDDF 200500Z 2006/2112 20004KT CAVOK BECMG 2008/2010 22011KT BECMG 2017/2019 18003KT BECMG 2104/2106 20008KT BECMG 2107/2109 23013KT TEMPO 2109/2112 25015G30KT BKN025